首页
METAR-TAF:

METAR-TAF

机场 :

Searle Field

Ogallala, 內布拉斯加州, 美国

纬度: 41-07-11N, 经度: 101-46-08W, 海拔: 999米

当前天气观测

该预报发布于22分钟前的06:55 UTC
风速3节,风向西
温度 23°C
湿度 50%
气压 1011 hPa
能見度: 16.1公里
天空无云

METAR: KOGA 130655Z AUTO 28003KT 10SM CLR 23/12 A2986 RMK AO2 T02320121 403870178

时间: 01:17 (07:17 UTC)


TAF: 丢失

超过4000个机场的气象观测和天气预报(METAR&TAF报告)。

可查询的气象台以黄色和红色小点在地图上表示。

将鼠标移到小点上方,可查看气象台名称。

然后点击查看天气观测和预报。

如需切换地图:点击带黑十字的绿色按钮放大地图;点击带横线的绿色按钮缩小地图;或者点击绿色箭头查看邻近地区的地图。


METAR-TAF: